createdAt,value
2018-07-31T00:04:10.743Z,82.60
2018-07-31T00:09:13.984Z,81.60
2018-07-31T00:14:19.322Z,82.30
2018-07-31T00:19:22.590Z,81.50
2018-07-31T00:24:25.927Z,81.70
2018-07-31T00:29:29.177Z,81.50
2018-07-31T00:34:32.386Z,81.60
2018-07-31T00:39:35.634Z,81.90
2018-07-31T00:44:38.889Z,81.60
2018-07-31T00:49:42.089Z,82.10
2018-07-31T00:54:45.346Z,83.70
2018-07-31T00:59:48.685Z,83.90
2018-07-31T01:04:51.978Z,86.30
2018-07-31T01:09:55.254Z,86.70
2018-07-31T01:14:59.949Z,85.90
2018-07-31T01:20:05.929Z,87.30
2018-07-31T01:25:09.940Z,87.00
2018-07-31T01:30:14.383Z,86.80
2018-07-31T01:35:19.513Z,88.20
2018-07-31T01:40:22.665Z,88.10
2018-07-31T01:45:25.842Z,89.10
2018-07-31T01:50:29.845Z,88.10
2018-07-31T01:55:32.990Z,89.00
2018-07-31T02:00:36.217Z,89.00
2018-07-31T02:05:39.442Z,90.10
2018-07-31T02:15:46.099Z,89.90
2018-07-31T02:20:49.621Z,89.60
2018-07-31T02:25:52.869Z,89.40
2018-07-31T02:30:56.010Z,89.90
2018-07-31T02:51:08.054Z,91.00
2018-07-31T02:56:11.248Z,90.90
2018-07-31T03:01:14.478Z,91.10
2018-07-31T03:06:17.672Z,91.40
2018-07-31T03:11:20.842Z,91.70
2018-07-31T03:16:23.981Z,91.90
2018-07-31T03:21:27.166Z,92.00
2018-07-31T03:26:30.348Z,92.20
2018-07-31T03:31:33.502Z,92.40
2018-07-31T03:36:36.658Z,92.60
2018-07-31T03:41:39.968Z,92.90
2018-07-31T03:46:43.113Z,93.20
2018-07-31T03:51:46.351Z,93.40
2018-07-31T03:56:49.490Z,93.40
2018-07-31T04:01:52.643Z,93.60
2018-07-31T04:06:55.851Z,93.80
2018-07-31T04:11:59.003Z,94.00
2018-07-31T04:17:02.718Z,94.30
2018-07-31T04:22:05.922Z,94.40
2018-07-31T04:27:09.158Z,94.70
2018-07-31T04:32:12.471Z,94.90
2018-07-31T04:37:15.654Z,94.90
2018-07-31T04:42:18.857Z,95.00
2018-07-31T04:47:22.034Z,95.10
2018-07-31T04:52:25.189Z,95.40
2018-07-31T04:57:28.378Z,95.30
2018-07-31T05:02:31.536Z,95.50
2018-07-31T05:07:37.858Z,95.90
2018-07-31T05:12:42.307Z,95.50
2018-07-31T05:17:45.583Z,95.30
2018-07-31T05:22:48.885Z,95.80
2018-07-31T05:27:55.292Z,95.80
2018-07-31T05:32:59.604Z,96.20
2018-07-31T05:38:02.852Z,96.10
2018-07-31T05:43:07.171Z,96.20
2018-07-31T05:48:10.452Z,96.30
2018-07-31T05:53:15.729Z,96.50
2018-07-31T05:58:18.996Z,96.70
2018-07-31T06:03:22.274Z,97.00
2018-07-31T06:08:26.593Z,96.10
2018-07-31T06:13:29.826Z,95.90
2018-07-31T06:18:33.377Z,95.70
2018-07-31T06:23:36.622Z,95.40
2018-07-31T06:28:39.857Z,95.20
2018-07-31T06:33:44.198Z,95.10
2018-07-31T06:38:47.419Z,94.80
2018-07-31T06:43:51.586Z,94.80
2018-07-31T06:48:55.078Z,94.60
2018-07-31T06:53:58.293Z,94.40
2018-07-31T07:04:04.661Z,92.90
2018-07-31T07:09:09.318Z,93.20
2018-07-31T07:14:12.570Z,93.10
2018-07-31T07:19:15.755Z,92.90
2018-07-31T07:24:22.482Z,92.90
2018-07-31T07:29:25.662Z,92.40
2018-07-31T07:34:28.886Z,92.70
2018-07-31T07:39:32.147Z,92.70
2018-07-31T07:44:35.438Z,92.40
2018-07-31T07:49:39.099Z,91.90
2018-07-31T07:54:50.843Z,90.50
2018-07-31T07:59:54.055Z,90.60
2018-07-31T08:10:00.284Z,88.70
2018-07-31T08:15:03.509Z,88.30
2018-07-31T08:20:06.857Z,88.40
2018-07-31T08:25:10.083Z,87.00
2018-07-31T08:30:13.281Z,85.80
2018-07-31T08:35:16.469Z,86.30
2018-07-31T08:40:19.830Z,82.80
2018-07-31T08:45:23.088Z,82.10
2018-07-31T08:50:26.385Z,82.00
2018-07-31T08:55:30.640Z,76.50
2018-07-31T09:00:33.985Z,74.70
2018-07-31T09:05:37.235Z,74.80
2018-07-31T09:10:40.458Z,73.00
2018-07-31T09:15:44.909Z,74.20
2018-07-31T09:20:49.048Z,74.60
2018-07-31T09:25:52.230Z,75.80
2018-07-31T09:31:00.949Z,73.90
2018-07-31T09:36:04.004Z,72.50
2018-07-31T09:41:08.977Z,73.10
2018-07-31T09:46:12.258Z,74.00
2018-07-31T09:51:16.517Z,71.00
2018-07-31T09:56:19.623Z,69.70
2018-07-31T10:01:26.387Z,70.50
2018-07-31T10:06:32.366Z,71.10
2018-07-31T10:11:35.830Z,68.10
2018-07-31T10:16:39.273Z,64.40
2018-07-31T10:21:44.632Z,59.00
2018-07-31T10:26:47.745Z,58.10
2018-07-31T10:31:50.970Z,57.70
2018-07-31T10:36:55.095Z,58.30
2018-07-31T10:41:59.303Z,58.90
2018-07-31T10:47:03.681Z,60.90
2018-07-31T10:52:06.891Z,61.30
2018-07-31T10:57:10.089Z,61.10
2018-07-31T11:02:14.951Z,60.70
2018-07-31T11:07:19.977Z,61.70
2018-07-31T11:12:23.331Z,60.70
2018-07-31T11:17:29.095Z,58.70
2018-07-31T11:22:34.469Z,59.80
2018-07-31T11:27:37.803Z,56.20
2018-07-31T11:32:41.871Z,53.80
2018-07-31T11:37:46.041Z,54.60
2018-07-31T11:42:49.338Z,56.10
2018-07-31T11:47:52.974Z,59.00
2018-07-31T11:52:56.280Z,58.70
2018-07-31T11:58:00.657Z,57.50
2018-07-31T12:03:05.777Z,58.70
2018-07-31T12:08:10.926Z,57.30
2018-07-31T12:13:14.221Z,54.30
2018-07-31T12:18:17.721Z,57.30
2018-07-31T12:23:20.881Z,58.40
2018-07-31T12:28:27.236Z,56.30
2018-07-31T12:33:31.270Z,55.80
2018-07-31T12:38:34.633Z,56.60
2018-07-31T12:43:37.748Z,55.60
2018-07-31T12:48:40.992Z,53.00
2018-07-31T12:53:44.197Z,51.80
2018-07-31T12:58:49.158Z,52.80
2018-07-31T13:03:52.504Z,53.10
2018-07-31T13:08:55.687Z,52.40
2018-07-31T13:13:58.905Z,53.90
2018-07-31T13:19:02.375Z,52.90
2018-07-31T13:24:05.636Z,52.40
2018-07-31T13:29:08.916Z,53.80
2018-07-31T13:34:12.304Z,54.30
2018-07-31T13:39:15.584Z,55.50
2018-07-31T13:44:19.126Z,51.70
2018-07-31T13:49:22.383Z,51.70
2018-07-31T13:54:25.629Z,54.70
2018-07-31T13:59:28.889Z,55.00
2018-07-31T14:04:32.142Z,55.30
2018-07-31T14:09:35.373Z,55.70
2018-07-31T14:14:38.578Z,55.80
2018-07-31T14:19:41.841Z,55.40
2018-07-31T14:24:45.097Z,55.30
2018-07-31T14:29:48.310Z,55.30
2018-07-31T14:34:51.613Z,55.90
2018-07-31T14:39:54.814Z,55.90
2018-07-31T14:44:58.060Z,55.70
2018-07-31T14:50:01.273Z,56.70
2018-07-31T14:55:04.585Z,56.50
2018-07-31T15:00:08.313Z,55.50
2018-07-31T15:05:11.567Z,54.80
2018-07-31T15:10:14.793Z,55.30
2018-07-31T15:15:18.017Z,54.50
2018-07-31T15:20:21.659Z,55.30
2018-07-31T15:25:25.145Z,54.60
2018-07-31T15:30:28.359Z,54.40
2018-07-31T15:35:31.616Z,53.70
2018-07-31T15:40:38.669Z,54.60
2018-07-31T15:45:41.853Z,55.00
2018-07-31T15:50:45.205Z,55.40
2018-07-31T15:55:48.545Z,53.50
2018-07-31T16:00:51.699Z,52.20
2018-07-31T16:05:56.021Z,53.10
2018-07-31T16:10:59.289Z,50.10
2018-07-31T16:16:02.500Z,49.50
2018-07-31T16:21:05.949Z,48.60
2018-07-31T16:26:09.259Z,49.10
2018-07-31T16:31:12.483Z,48.80
2018-07-31T16:36:15.699Z,47.50
2018-07-31T16:41:20.830Z,47.60
2018-07-31T16:46:24.969Z,47.40
2018-07-31T16:51:29.220Z,46.70
2018-07-31T16:56:32.443Z,48.40
2018-07-31T17:01:35.748Z,47.90
2018-07-31T17:06:38.985Z,49.20
2018-07-31T17:11:42.219Z,50.00
2018-07-31T17:16:45.662Z,51.40
2018-07-31T17:21:50.144Z,52.60
2018-07-31T17:26:53.448Z,53.80
2018-07-31T17:31:56.990Z,55.90
2018-07-31T17:37:00.269Z,56.60
2018-07-31T17:42:03.569Z,57.20
2018-07-31T17:47:08.022Z,58.30
2018-07-31T17:52:11.299Z,59.70
2018-07-31T17:57:14.534Z,59.70
2018-07-31T18:02:17.766Z,60.60
2018-07-31T18:07:21.209Z,61.30
2018-07-31T18:12:24.354Z,62.10
2018-07-31T18:17:27.553Z,62.40
2018-07-31T18:22:31.838Z,63.20
2018-07-31T18:27:35.125Z,63.80
2018-07-31T18:32:38.570Z,63.70
2018-07-31T18:37:42.010Z,63.90
2018-07-31T18:42:45.259Z,64.80
2018-07-31T18:47:49.484Z,65.20
2018-07-31T18:52:52.926Z,66.20
2018-07-31T18:57:56.275Z,66.50
2018-07-31T19:02:59.594Z,66.90
2018-07-31T19:08:04.827Z,67.50
2018-07-31T19:13:08.109Z,68.80
2018-07-31T19:18:11.408Z,69.30
2018-07-31T19:23:14.719Z,69.30
2018-07-31T19:28:18.159Z,70.50
2018-07-31T19:33:21.439Z,69.80
2018-07-31T19:38:24.725Z,70.50
2018-07-31T19:43:28.005Z,71.90
2018-07-31T19:48:31.298Z,73.10
2018-07-31T19:53:35.360Z,71.80
2018-07-31T19:58:39.934Z,71.60
2018-07-31T20:03:43.211Z,72.00
2018-07-31T20:08:48.523Z,72.10
2018-07-31T20:13:52.538Z,72.10
2018-07-31T20:18:55.813Z,72.10
2018-07-31T20:23:58.987Z,73.40
2018-07-31T20:29:02.218Z,72.60
2018-07-31T20:34:05.476Z,73.60
2018-07-31T20:39:10.001Z,74.00
2018-07-31T20:44:13.244Z,73.40
2018-07-31T20:49:16.511Z,73.80
2018-07-31T20:54:19.925Z,74.10
2018-07-31T20:59:23.249Z,74.40
2018-07-31T21:04:26.447Z,75.10
2018-07-31T21:09:29.613Z,75.40
2018-07-31T21:14:32.766Z,74.20
2018-07-31T21:19:35.930Z,74.50
2018-07-31T21:24:39.258Z,74.60
2018-07-31T21:29:42.469Z,74.40
2018-07-31T21:34:45.702Z,75.30
2018-07-31T21:39:48.917Z,76.00
2018-07-31T21:44:52.182Z,76.30
2018-07-31T21:49:55.438Z,77.10
2018-07-31T21:54:58.796Z,78.50
2018-07-31T22:00:02.023Z,76.10
2018-07-31T22:05:05.348Z,76.50
2018-07-31T22:10:08.629Z,76.20
2018-07-31T22:15:12.069Z,76.10
2018-07-31T22:20:15.311Z,76.20
2018-07-31T22:25:18.682Z,76.60
2018-07-31T22:30:21.805Z,77.20
2018-07-31T22:35:25.038Z,77.20
2018-07-31T22:40:28.370Z,77.40
2018-07-31T22:45:31.655Z,78.20
2018-07-31T22:50:34.933Z,78.40
2018-07-31T22:55:38.666Z,78.90
2018-07-31T23:00:47.740Z,78.90
2018-07-31T23:05:51.066Z,79.70
2018-07-31T23:10:54.373Z,80.20
2018-07-31T23:16:02.362Z,81.10
2018-07-31T23:21:05.598Z,81.80
2018-07-31T23:26:10.789Z,81.60
2018-07-31T23:31:14.010Z,82.20
2018-07-31T23:36:17.252Z,82.40
2018-07-31T23:41:20.374Z,82.50
2018-07-31T23:46:23.617Z,83.00
2018-07-31T23:51:26.802Z,83.20
2018-07-31T23:56:29.945Z,83.60
